sensor_id;sensor_type;location;lat;lon;timestamp;pressure;altitude;pressure_sealevel;temperature;humidity
45939;BME280;31650;48.818;9.116;2023-02-22T00:03:25;97924.44;;;2.03;100.00
45939;BME280;31650;48.818;9.116;2023-02-22T00:18:26;97911.34;;;2.25;100.00
45939;BME280;31650;48.818;9.116;2023-02-22T00:33:27;97900.28;;;2.11;100.00
45939;BME280;31650;48.818;9.116;2023-02-22T00:48:28;97896.91;;;2.26;100.00
45939;BME280;31650;48.818;9.116;2023-02-22T01:03:28;97880.19;;;1.99;100.00
45939;BME280;31650;48.818;9.116;2023-02-22T01:18:28;97864.09;;;1.99;100.00
45939;BME280;31650;48.818;9.116;2023-02-22T01:33:29;97854.03;;;1.85;100.00
45939;BME280;31650;48.818;9.116;2023-02-22T02:03:36;97831.44;;;1.30;100.00
45939;BME280;31650;48.818;9.116;2023-02-22T02:18:37;97812.16;;;1.26;100.00
45939;BME280;31650;48.818;9.116;2023-02-22T02:33:41;97782.88;;;1.41;100.00
45939;BME280;31650;48.818;9.116;2023-02-22T02:48:45;97785.72;;;1.64;100.00
45939;BME280;31650;48.818;9.116;2023-02-22T03:04:11;97770.81;;;1.62;100.00
45939;BME280;31650;48.818;9.116;2023-02-22T03:19:13;97756.25;;;1.23;100.00
45939;BME280;31650;48.818;9.116;2023-02-22T03:34:21;97747.72;;;1.53;100.00
45939;BME280;31650;48.818;9.116;2023-02-22T04:04:28;97749.50;;;0.87;100.00
45939;BME280;31650;48.818;9.116;2023-02-22T04:19:29;97739.13;;;0.83;100.00
45939;BME280;31650;48.818;9.116;2023-02-22T04:34:29;97727.91;;;0.72;100.00
45939;BME280;31650;48.818;9.116;2023-02-22T04:49:29;97725.41;;;0.70;100.00
45939;BME280;31650;48.818;9.116;2023-02-22T05:04:29;97729.56;;;0.64;100.00
45939;BME280;31650;48.818;9.116;2023-02-22T05:19:29;97716.75;;;0.84;100.00
45939;BME280;31650;48.818;9.116;2023-02-22T05:34:30;97712.38;;;0.83;100.00
45939;BME280;31650;48.818;9.116;2023-02-22T05:49:30;97705.13;;;0.59;100.00
45939;BME280;31650;48.818;9.116;2023-02-22T06:04:30;97700.47;;;0.53;100.00
45939;BME280;31650;48.818;9.116;2023-02-22T06:19:30;97701.38;;;1.11;100.00
45939;BME280;31650;48.818;9.116;2023-02-22T06:34:31;97710.72;;;1.07;100.00
45939;BME280;31650;48.818;9.116;2023-02-22T06:49:31;97718.94;;;1.22;100.00
45939;BME280;31650;48.818;9.116;2023-02-22T07:04:31;97727.25;;;1.76;100.00
45939;BME280;31650;48.818;9.116;2023-02-22T07:19:31;97729.78;;;2.96;100.00
45939;BME280;31650;48.818;9.116;2023-02-22T07:34:32;97744.50;;;3.46;100.00
45939;BME280;31650;48.818;9.116;2023-02-22T07:49:33;97741.09;;;4.64;100.00
45939;BME280;31650;48.818;9.116;2023-02-22T08:04:33;97734.78;;;5.30;100.00
45939;BME280;31650;48.818;9.116;2023-02-22T08:19:33;97708.00;;;6.89;100.00
45939;BME280;31650;48.818;9.116;2023-02-22T08:34:34;97694.88;;;8.39;100.00
45939;BME280;31650;48.818;9.116;2023-02-22T08:49:34;97683.56;;;9.96;84.23
45939;BME280;31650;48.818;9.116;2023-02-22T09:04:34;97683.94;;;11.64;75.63
45939;BME280;31650;48.818;9.116;2023-02-22T09:19:34;97690.25;;;11.64;70.02
45939;BME280;31650;48.818;9.116;2023-02-22T09:34:34;97668.69;;;12.57;65.69
45939;BME280;31650;48.818;9.116;2023-02-22T09:49:36;97658.44;;;13.96;59.63
45939;BME280;31650;48.818;9.116;2023-02-22T10:04:43;97648.31;;;14.74;56.68
45939;BME280;31650;48.818;9.116;2023-02-22T10:34:56;97628.72;;;15.64;53.85
45939;BME280;31650;48.818;9.116;2023-02-22T10:49:57;97630.75;;;13.92;59.21
45939;BME280;31650;48.818;9.116;2023-02-22T11:05:00;97618.56;;;14.17;58.77
45939;BME280;31650;48.818;9.116;2023-02-22T11:20:04;97609.56;;;14.82;58.35
45939;BME280;31650;48.818;9.116;2023-02-22T11:35:18;97600.81;;;14.19;60.42
45939;BME280;31650;48.818;9.116;2023-02-22T12:20:45;97557.72;;;13.32;64.43
45939;BME280;31650;48.818;9.116;2023-02-22T12:35:53;97540.44;;;15.24;59.83
45939;BME280;31650;48.818;9.116;2023-02-22T12:51:01;97538.94;;;15.44;57.58
45939;BME280;31650;48.818;9.116;2023-02-22T13:21:38;97520.72;;;15.97;55.16
45939;BME280;31650;48.818;9.116;2023-02-22T13:51:50;97519.13;;;14.23;60.26
45939;BME280;31650;48.818;9.116;2023-02-22T14:06:52;97517.84;;;13.48;63.04
45939;BME280;31650;48.818;9.116;2023-02-22T14:21:56;97516.06;;;13.58;63.80
45939;BME280;31650;48.818;9.116;2023-02-22T14:37:08;97514.28;;;13.86;65.48
45939;BME280;31650;48.818;9.116;2023-02-22T14:52:16;97508.06;;;14.13;64.14
45939;BME280;31650;48.818;9.116;2023-02-22T15:07:22;97502.44;;;13.80;64.02
45939;BME280;31650;48.818;9.116;2023-02-22T15:22:27;97500.03;;;13.62;63.81
45939;BME280;31650;48.818;9.116;2023-02-22T15:37:31;97498.81;;;13.36;65.82
45939;BME280;31650;48.818;9.116;2023-02-22T15:52:31;97497.63;;;12.98;68.59
45939;BME280;31650;48.818;9.116;2023-02-22T16:07:32;97516.81;;;12.57;70.08
45939;BME280;31650;48.818;9.116;2023-02-22T16:22:34;97517.97;;;11.92;74.19
45939;BME280;31650;48.818;9.116;2023-02-22T16:37:34;97525.28;;;10.98;80.64
45939;BME280;31650;48.818;9.116;2023-02-22T16:52:35;97528.13;;;10.49;86.82
45939;BME280;31650;48.818;9.116;2023-02-22T17:07:38;97545.28;;;9.94;84.57
45939;BME280;31650;48.818;9.116;2023-02-22T17:22:39;97558.59;;;9.59;83.66
45939;BME280;31650;48.818;9.116;2023-02-22T17:37:39;97571.19;;;8.40;98.56
45939;BME280;31650;48.818;9.116;2023-02-22T17:52:40;97598.44;;;7.66;100.00
45939;BME280;31650;48.818;9.116;2023-02-22T18:07:44;97600.75;;;7.43;100.00
45939;BME280;31650;48.818;9.116;2023-02-22T18:22:44;97606.78;;;7.65;100.00
45939;BME280;31650;48.818;9.116;2023-02-22T18:37:45;97587.97;;;7.97;100.00
45939;BME280;31650;48.818;9.116;2023-02-22T18:52:45;97596.34;;;7.82;100.00
45939;BME280;31650;48.818;9.116;2023-02-22T19:07:45;97590.13;;;8.33;100.00
45939;BME280;31650;48.818;9.116;2023-02-22T19:22:46;97578.59;;;8.89;100.00
45939;BME280;31650;48.818;9.116;2023-02-22T19:37:48;97583.34;;;8.94;100.00
45939;BME280;31650;48.818;9.116;2023-02-22T19:52:52;97594.47;;;8.86;100.00
45939;BME280;31650;48.818;9.116;2023-02-22T20:07:54;97603.06;;;8.76;100.00
45939;BME280;31650;48.818;9.116;2023-02-22T20:22:55;97600.34;;;8.44;100.00
45939;BME280;31650;48.818;9.116;2023-02-22T20:37:55;97618.00;;;7.68;100.00
45939;BME280;31650;48.818;9.116;2023-02-22T20:52:56;97618.88;;;7.16;100.00
45939;BME280;31650;48.818;9.116;2023-02-22T21:07:57;97637.56;;;7.04;100.00
45939;BME280;31650;48.818;9.116;2023-02-22T21:22:59;97631.97;;;7.12;100.00
45939;BME280;31650;48.818;9.116;2023-02-22T21:38:00;97641.91;;;6.92;100.00
45939;BME280;31650;48.818;9.116;2023-02-22T21:53:01;97635.22;;;6.74;100.00
45939;BME280;31650;48.818;9.116;2023-02-22T22:08:01;97630.50;;;6.35;100.00
45939;BME280;31650;48.818;9.116;2023-02-22T22:23:06;97631.63;;;5.99;100.00
45939;BME280;31650;48.818;9.116;2023-02-22T22:38:06;97631.94;;;5.89;100.00
45939;BME280;31650;48.818;9.116;2023-02-22T22:53:08;97625.63;;;5.75;100.00
45939;BME280;31650;48.818;9.116;2023-02-22T23:08:08;97632.47;;;6.06;100.00
45939;BME280;31650;48.818;9.116;2023-02-22T23:23:09;97632.78;;;6.31;100.00
45939;BME280;31650;48.818;9.116;2023-02-22T23:38:13;97627.47;;;6.58;100.00
45939;BME280;31650;48.818;9.116;2023-02-22T23:53:13;97623.84;;;6.86;100.00
